Time;durP1;ratioP1;P1;durP2;ratioP2;P2;SDS_P1;SDS_P2;PMS_P1;PMS_P2;Temp;Humidity;BMP_temperature;BMP_pressure;BME280_temperature;BME280_humidity;BME280_pressure;Samples;Min_cycle;Max_cycle;Signal;HPM_P1;HPM_P2
2023/01/23 00:02:06;;;;;;;19.47;6.37;;;;;;;;;;10495228;28;20044;-76
2023/01/23 00:07:09;;;;;;;19.10;6.10;;;;;;;;;;10521655;28;20492;-77
2023/01/23 00:12:13;;;;;;;27.70;7.67;;;;;;;;;;10528923;28;20043;-75
2023/01/23 00:17:15;;;;;;;13.40;5.65;;;;;;;;;;10523873;28;20066;-74
2023/01/23 00:22:18;;;;;;;22.03;8.03;;;;;;;;;;10523792;28;20466;-75
2023/01/23 00:27:22;;;;;;;11.83;4.73;;;;;;;;;;10506328;28;20474;-75
2023/01/23 00:32:25;;;;;;;16.98;5.88;;;;;;;;;;10527900;28;20044;-74
2023/01/23 00:37:27;;;;;;;10.47;3.57;;;;;;;;;;10527095;28;20036;-74
2023/01/23 00:42:31;;;;;;;21.77;6.40;;;;;;;;;;10514056;28;20032;-74
2023/01/23 00:47:34;;;;;;;14.30;5.43;;;;;;;;;;10522366;28;20124;-74
2023/01/23 00:52:36;;;;;;;28.63;8.30;;;;;;;;;;10521429;28;20477;-74
2023/01/23 00:57:40;;;;;;;14.20;5.63;;;;;;;;;;10524297;28;20536;-75
2023/01/23 01:02:43;;;;;;;10.50;4.18;;;;;;;;;;10517240;28;20035;-74
2023/01/23 01:07:45;;;;;;;20.30;6.47;;;;;;;;;;10517864;28;20044;-76
2023/01/23 01:12:49;;;;;;;11.97;6.43;;;;;;;;;;10519166;28;20401;-75
2023/01/23 01:17:53;;;;;;;24.85;8.95;;;;;;;;;;10516133;28;20058;-75
2023/01/23 01:22:56;;;;;;;20.60;7.37;;;;;;;;;;10522083;28;20120;-75
2023/01/23 01:28:00;;;;;;;29.23;8.73;;;;;;;;;;10515400;28;20521;-74
2023/01/23 01:33:03;;;;;;;25.75;8.05;;;;;;;;;;10520441;28;20040;-74
2023/01/23 01:38:05;;;;;;;20.50;6.47;;;;;;;;;;10519918;28;20045;-74
2023/01/23 01:43:18;;;;;;;17.33;6.30;;;;;;;;;;10520426;28;20067;-75
2023/01/23 01:48:22;;;;;;;29.00;8.90;;;;;;;;;;10528796;28;20035;-75
2023/01/23 01:53:26;;;;;;;23.10;7.87;;;;;;;;;;10523213;28;20044;-75
2023/01/23 01:58:30;;;;;;;26.10;8.90;;;;;;;;;;10522781;28;20036;-75
2023/01/23 02:03:33;;;;;;;29.00;8.93;;;;;;;;;;10525675;28;20055;-75
2023/01/23 02:08:39;;;;;;;14.33;5.90;;;;;;;;;;10523820;28;20191;-74
2023/01/23 02:13:44;;;;;;;19.83;7.23;;;;;;;;;;10519684;28;20486;-74
2023/01/23 02:18:49;;;;;;;26.03;8.17;;;;;;;;;;10513610;28;20393;-74
2023/01/23 02:24:01;;;;;;;15.73;5.37;;;;;;;;;;10513302;28;20036;-75
2023/01/23 02:29:05;;;;;;;28.80;8.43;;;;;;;;;;10524443;28;20047;-74
2023/01/23 02:34:10;;;;;;;28.88;8.52;;;;;;;;;;10514011;28;20040;-75
2023/01/23 02:39:13;;;;;;;17.03;6.17;;;;;;;;;;10510333;28;20036;-75
2023/01/23 02:44:20;;;;;;;16.03;5.67;;;;;;;;;;10516701;28;20062;-76
2023/01/23 02:49:22;;;;;;;21.07;7.70;;;;;;;;;;10526905;28;20032;-75
2023/01/23 02:54:25;;;;;;;19.63;5.60;;;;;;;;;;10524865;28;20098;-75
2023/01/23 03:04:49;;;;;;;13.90;5.67;;;;;;;;;;10517493;28;20036;-75
2023/01/23 03:09:52;;;;;;;21.50;7.83;;;;;;;;;;10516296;28;20039;-75
2023/01/23 03:14:57;;;;;;;8.60;3.20;;;;;;;;;;10517718;28;20451;-75
2023/01/23 03:20:00;;;;;;;9.53;3.37;;;;;;;;;;10518322;28;20036;-75
2023/01/23 03:25:03;;;;;;;18.20;6.33;;;;;;;;;;10518537;28;20052;-75
2023/01/23 03:30:14;;;;;;;25.43;8.17;;;;;;;;;;10520790;28;20142;-74
2023/01/23 03:35:19;;;;;;;20.70;7.30;;;;;;;;;;10516104;28;20547;-74
2023/01/23 03:45:44;;;;;;;23.83;8.23;;;;;;;;;;10535603;28;20036;-75
2023/01/23 03:50:47;;;;;;;;;;;;;;;;;;10520668;28;20036;-74
2023/01/23 03:55:50;;;;;;;25.10;7.70;;;;;;;;;;10524857;28;20349;-74
2023/01/23 04:00:54;;;;;;;24.77;8.77;;;;;;;;;;10520470;28;20051;-74
2023/01/23 04:05:58;;;;;;;25.50;7.93;;;;;;;;;;10524263;28;20176;-74
2023/01/23 04:11:01;;;;;;;24.27;8.23;;;;;;;;;;10526894;28;20060;-75
2023/01/23 04:16:06;;;;;;;20.13;7.13;;;;;;;;;;10525169;28;20055;-75
2023/01/23 04:21:09;;;;;;;17.17;6.20;;;;;;;;;;10522515;28;20301;-74
2023/01/23 04:26:12;;;;;;;23.07;8.77;;;;;;;;;;10524685;28;20051;-74
2023/01/23 04:31:16;;;;;;;20.27;7.10;;;;;;;;;;10524218;28;20033;-74
2023/01/23 04:36:18;;;;;;;;;;;;;;;;;;10526349;28;20212;-74
2023/01/23 04:41:22;;;;;;;19.23;6.47;;;;;;;;;;10531175;28;20000;-74
2023/01/23 04:46:26;;;;;;;12.98;5.72;;;;;;;;;;10527784;28;20036;-74
2023/01/23 04:51:29;;;;;;;16.13;6.13;;;;;;;;;;10524906;28;20469;-74
2023/01/23 04:56:32;;;;;;;13.17;4.83;;;;;;;;;;10523297;28;20043;-74
2023/01/23 05:01:36;;;;;;;24.53;8.13;;;;;;;;;;10519486;28;20393;-75
2023/01/23 05:06:39;;;;;;;25.37;8.07;;;;;;;;;;10522491;28;20040;-74
2023/01/23 05:11:41;;;;;;;26.70;8.27;;;;;;;;;;10520866;28;20040;-74
2023/01/23 05:16:46;;;;;;;32.83;9.20;;;;;;;;;;10523316;28;20059;-74
2023/01/23 05:21:48;;;;;;;28.35;8.98;;;;;;;;;;10520379;28;20551;-75
2023/01/23 05:26:51;;;;;;;12.83;3.93;;;;;;;;;;10525756;28;20477;-76
2023/01/23 05:31:55;;;;;;;21.37;6.53;;;;;;;;;;10525450;28;20036;-75
2023/01/23 05:36:58;;;;;;;20.52;7.50;;;;;;;;;;10515827;28;20059;-75
2023/01/23 05:42:01;;;;;;;19.30;6.77;;;;;;;;;;10525393;28;20066;-74
2023/01/23 05:47:05;;;;;;;17.33;6.33;;;;;;;;;;10520774;28;20040;-74
2023/01/23 05:52:07;;;;;;;26.92;8.73;;;;;;;;;;10519572;28;20284;-76
2023/01/23 05:57:10;;;;;;;10.43;4.77;;;;;;;;;;10520657;28;20044;-74
2023/01/23 06:02:14;;;;;;;22.90;8.30;;;;;;;;;;10522676;28;20036;-74
2023/01/23 06:07:17;;;;;;;;;;;;;;;;;;10518507;28;20049;-73
2023/01/23 06:12:19;;;;;;;26.70;9.17;;;;;;;;;;10519238;28;20011;-76
2023/01/23 06:17:23;;;;;;;26.23;8.37;;;;;;;;;;10522795;28;20032;-74
2023/01/23 06:22:26;;;;;;;20.48;6.95;;;;;;;;;;10517249;28;20032;-75
2023/01/23 06:27:31;;;;;;;26.27;8.33;;;;;;;;;;10525716;28;20040;-77
2023/01/23 06:32:35;;;;;;;31.67;9.13;;;;;;;;;;10521315;28;20468;-76
2023/01/23 06:37:38;;;;;;;20.23;5.97;;;;;;;;;;10520189;28;20412;-75
2023/01/23 06:42:41;;;;;;;36.83;10.93;;;;;;;;;;10517598;28;20082;-74
2023/01/23 06:47:45;;;;;;;33.53;11.10;;;;;;;;;;10520310;28;20048;-73
2023/01/23 06:52:48;;;;;;;39.70;11.63;;;;;;;;;;10518006;28;20047;-74
2023/01/23 06:57:50;;;;;;;41.97;11.87;;;;;;;;;;10513657;28;20045;-74
2023/01/23 07:02:57;;;;;;;51.17;13.10;;;;;;;;;;10516756;28;20042;-75
2023/01/23 07:08:00;;;;;;;45.13;10.57;;;;;;;;;;10522442;28;20127;-76
2023/01/23 07:13:06;;;;;;;44.27;11.10;;;;;;;;;;10523157;28;20198;-74
2023/01/23 07:18:10;;;;;;;44.77;11.87;;;;;;;;;;10518009;28;20070;-74
2023/01/23 07:23:13;;;;;;;;;;;;;;;;;;10523122;28;20132;-74
2023/01/23 07:28:16;;;;;;;31.17;10.10;;;;;;;;;;10534597;28;20415;-75
2023/01/23 07:33:20;;;;;;;35.57;10.37;;;;;;;;;;10525410;28;20135;-76
2023/01/23 07:38:24;;;;;;;45.28;13.15;;;;;;;;;;10520293;28;20031;-77
2023/01/23 07:43:27;;;;;;;48.65;16.33;;;;;;;;;;10524144;28;20205;-75
2023/01/23 07:48:31;;;;;;;51.07;13.43;;;;;;;;;;10524731;28;20052;-75
2023/01/23 07:53:33;;;;;;;14.73;5.70;;;;;;;;;;10521513;28;20130;-75
2023/01/23 07:58:36;;;;;;;50.10;13.47;;;;;;;;;;10530828;28;20040;-75
2023/01/23 08:03:40;;;;;;;38.30;11.10;;;;;;;;;;10520333;28;20036;-75
2023/01/23 08:08:43;;;;;;;39.03;11.75;;;;;;;;;;10529989;28;20040;-75
2023/01/23 08:13:49;;;;;;;35.23;10.53;;;;;;;;;;10527417;28;20040;-75
2023/01/23 08:18:53;;;;;;;30.10;9.87;;;;;;;;;;10524847;28;20036;-74
2023/01/23 08:23:56;;;;;;;;;;;;;;;;;;10486943;28;20071;-75
2023/01/23 08:28:59;;;;;;;26.73;9.17;;;;;;;;;;10518760;28;20380;-74
2023/01/23 08:34:04;;;;;;;34.13;9.23;;;;;;;;;;10520425;28;20044;-74
2023/01/23 08:39:06;;;;;;;31.73;9.13;;;;;;;;;;10507211;28;20048;-75
2023/01/23 08:44:09;;;;;;;18.37;6.60;;;;;;;;;;10522564;28;20052;-75
2023/01/23 08:49:14;;;;;;;33.67;9.90;;;;;;;;;;10507504;28;20049;-75
2023/01/23 08:54:16;;;;;;;32.30;10.13;;;;;;;;;;10527183;28;20502;-75
2023/01/23 08:59:19;;;;;;;24.13;7.40;;;;;;;;;;10508998;28;20089;-76
2023/01/23 09:04:23;;;;;;;22.53;4.53;;;;;;;;;;10507990;28;20092;-76
2023/01/23 09:09:28;;;;;;;27.02;9.27;;;;;;;;;;10501259;28;20048;-77
2023/01/23 09:14:32;;;;;;;25.03;7.17;;;;;;;;;;10523107;28;20440;-74
2023/01/23 09:19:37;;;;;;;22.50;7.30;;;;;;;;;;10528253;28;20167;-74
2023/01/23 09:24:40;;;;;;;16.00;5.20;;;;;;;;;;10530579;28;21026;-75
2023/01/23 09:29:43;;;;;;;27.63;8.13;;;;;;;;;;10525825;28;20055;-75
2023/01/23 09:34:48;;;;;;;23.40;8.57;;;;;;;;;;10514664;28;20392;-75
2023/01/23 09:39:51;;;;;;;30.57;9.27;;;;;;;;;;10515002;28;21352;-75
2023/01/23 09:45:00;;;;;;;39.53;10.40;;;;;;;;;;10519967;28;20036;-75
2023/01/23 09:50:07;;;;;;;22.03;6.60;;;;;;;;;;10501787;28;20406;-76
2023/01/23 09:55:13;;;;;;;11.80;4.40;;;;;;;;;;10522559;28;20496;-75
2023/01/23 10:00:20;;;;;;;13.70;4.97;;;;;;;;;;10518768;28;20047;-74
2023/01/23 10:05:30;;;;;;;2.63;1.93;;;;;;;;;;10516121;28;20547;-75
2023/01/23 10:10:47;;;;;;;20.13;7.07;;;;;;;;;;10515652;28;20120;-75
2023/01/23 10:16:14;;;;;;;24.97;7.30;;;;;;;;;;10495880;28;20040;-76
2023/01/23 10:21:24;;;;;;;29.83;9.30;;;;;;;;;;10520266;28;20048;-75
2023/01/23 10:26:29;;;;;;;24.33;6.60;;;;;;;;;;10519043;28;20511;-75
2023/01/23 10:31:37;;;;;;;30.20;8.53;;;;;;;;;;10495011;28;20044;-75
2023/01/23 10:36:48;;;;;;;23.50;7.57;;;;;;;;;;10524310;28;20447;-76
2023/01/23 10:41:56;;;;;;;10.07;2.93;;;;;;;;;;10519618;28;20292;-74
2023/01/23 10:47:13;;;;;;;20.03;6.67;;;;;;;;;;10515879;28;20460;-74
2023/01/23 10:52:31;;;;;;;31.17;8.20;;;;;;;;;;10517386;28;20036;-76
2023/01/23 10:57:45;;;;;;;27.40;8.23;;;;;;;;;;10518248;28;20051;-77
2023/01/23 11:02:48;;;;;;;28.63;9.55;;;;;;;;;;10517110;28;20436;-74
2023/01/23 11:07:53;;;;;;;25.03;8.33;;;;;;;;;;10495254;28;20032;-77
2023/01/23 11:12:59;;;;;;;25.30;8.47;;;;;;;;;;10508439;28;20040;-75
2023/01/23 11:18:02;;;;;;;23.47;8.00;;;;;;;;;;10523590;28;20090;-73
2023/01/23 11:23:13;;;;;;;22.17;6.95;;;;;;;;;;10516334;28;20119;-74
2023/01/23 11:28:24;;;;;;;15.85;6.18;;;;;;;;;;10512785;28;20036;-76
2023/01/23 11:33:33;;;;;;;25.13;8.27;;;;;;;;;;10488727;28;20109;-75
2023/01/23 11:38:40;;;;;;;24.73;8.03;;;;;;;;;;10521085;28;20036;-75
2023/01/23 11:43:55;;;;;;;26.20;8.63;;;;;;;;;;10516693;28;20154;-75
2023/01/23 11:49:06;;;;;;;24.27;8.20;;;;;;;;;;10499516;28;20040;-76
2023/01/23 11:54:25;;;;;;;22.30;8.57;;;;;;;;;;10507821;28;20067;-76
2023/01/23 11:59:42;;;;;;;25.23;8.70;;;;;;;;;;10527347;28;20036;-74
2023/01/23 12:04:59;;;;;;;21.07;7.03;;;;;;;;;;10523906;28;20048;-75
2023/01/23 12:10:08;;;;;;;22.03;7.60;;;;;;;;;;10531486;28;20093;-75
2023/01/23 12:15:17;;;;;;;22.70;7.33;;;;;;;;;;10528262;28;20043;-76
2023/01/23 12:20:24;;;;;;;24.13;8.20;;;;;;;;;;10517928;28;20247;-75
2023/01/23 12:25:30;;;;;;;26.30;8.77;;;;;;;;;;10525975;28;20044;-75
2023/01/23 12:30:49;;;;;;;22.70;7.93;;;;;;;;;;10520511;28;20485;-75
2023/01/23 12:35:56;;;;;;;29.20;10.23;;;;;;;;;;10527999;28;20044;-74
2023/01/23 12:41:07;;;;;;;21.93;7.07;;;;;;;;;;10515973;28;20041;-76
2023/01/23 12:46:16;;;;;;;21.97;8.23;;;;;;;;;;10517276;28;20044;-75
2023/01/23 12:51:24;;;;;;;28.30;9.55;;;;;;;;;;10501696;28;20520;-75
2023/01/23 12:56:29;;;;;;;24.03;7.77;;;;;;;;;;10500765;28;20124;-73
2023/01/23 13:01:42;;;;;;;23.33;8.13;;;;;;;;;;10507510;28;20040;-75
2023/01/23 13:06:53;;;;;;;27.60;7.55;;;;;;;;;;10525099;28;20103;-75
2023/01/23 13:12:01;;;;;;;29.60;9.37;;;;;;;;;;10533306;28;20047;-77
2023/01/23 13:17:20;;;;;;;23.10;8.07;;;;;;;;;;10518963;28;20155;-75
2023/01/23 13:22:25;;;;;;;24.57;7.57;;;;;;;;;;10526599;28;20032;-76
2023/01/23 13:27:36;;;;;;;19.83;7.67;;;;;;;;;;10517345;28;20039;-75
2023/01/23 13:32:39;;;;;;;23.05;6.88;;;;;;;;;;10526086;28;20028;-75
2023/01/23 13:37:52;;;;;;;14.95;4.90;;;;;;;;;;10522872;28;20043;-74
2023/01/23 13:42:54;;;;;;;27.90;7.23;;;;;;;;;;10523973;28;20542;-74
2023/01/23 13:59:25;;;;;;;19.47;6.53;;;;;;;;;;10226359;28;20469;-75
2023/01/23 14:10:21;;;;;;;22.80;8.90;;;;;;;;;;9994005;29;20199;-75
2023/01/23 14:21:18;;;;;;;16.03;7.10;;;;;;;;;;9994064;29;20577;-74
2023/01/23 14:26:26;;;;;;;21.37;7.03;;;;;;;;;;10185052;29;20642;-74
2023/01/23 14:31:30;;;;;;;8.73;3.63;;;;;;;;;;10206361;28;20237;-75
2023/01/23 14:36:34;;;;;;;19.83;7.22;;;;;;;;;;10286138;28;20673;-75
2023/01/23 14:41:40;;;;;;;24.27;8.85;;;;;;;;;;10304228;28;20058;-75
2023/01/23 14:46:45;;;;;;;19.63;6.30;;;;;;;;;;10490797;28;20421;-74
2023/01/23 14:51:57;;;;;;;19.40;7.10;;;;;;;;;;10511837;28;20028;-75
2023/01/23 14:57:03;;;;;;;20.10;7.00;;;;;;;;;;10510842;28;20039;-75
2023/01/23 15:02:23;;;;;;;6.80;3.00;;;;;;;;;;10510053;28;20409;-75
2023/01/23 15:07:26;;;;;;;19.27;6.77;;;;;;;;;;10497647;28;20284;-74
2023/01/23 15:12:33;;;;;;;16.27;6.03;;;;;;;;;;10500750;28;20052;-75
2023/01/23 15:17:36;;;;;;;20.23;6.63;;;;;;;;;;10528141;28;20059;-74
2023/01/23 15:22:39;;;;;;;17.33;5.57;;;;;;;;;;10522434;28;20269;-75
2023/01/23 15:27:44;;;;;;;14.17;4.83;;;;;;;;;;10514934;28;20048;-76
2023/01/23 15:32:47;;;;;;;15.97;6.53;;;;;;;;;;10513792;28;20055;-74
2023/01/23 15:37:53;;;;;;;12.60;3.87;;;;;;;;;;10513955;28;20106;-75
2023/01/23 15:43:04;;;;;;;12.70;4.27;;;;;;;;;;10521508;28;20040;-75
2023/01/23 15:48:07;;;;;;;19.30;6.27;;;;;;;;;;10498208;28;20493;-74
2023/01/23 15:53:11;;;;;;;23.00;7.90;;;;;;;;;;10502731;28;20044;-75
2023/01/23 15:58:15;;;;;;;21.40;7.57;;;;;;;;;;10502807;28;20036;-74
2023/01/23 16:03:18;;;;;;;9.80;3.95;;;;;;;;;;10530757;28;20032;-75
2023/01/23 16:08:24;;;;;;;25.43;8.07;;;;;;;;;;10539469;28;20035;-74
2023/01/23 16:13:28;;;;;;;24.23;7.37;;;;;;;;;;10534418;28;20058;-74
2023/01/23 16:18:31;;;;;;;21.60;6.88;;;;;;;;;;10532130;28;20044;-75
2023/01/23 16:23:34;;;;;;;12.00;3.57;;;;;;;;;;10528802;28;20043;-76
2023/01/23 16:28:50;;;;;;;35.37;10.33;;;;;;;;;;10533000;28;20043;-74
2023/01/23 16:33:57;;;;;;;11.07;4.87;;;;;;;;;;10528476;28;20045;-74
2023/01/23 16:38:59;;;;;;;;;;;;;;;;;;10506687;28;20059;-76
2023/01/23 16:44:04;;;;;;;15.60;4.37;;;;;;;;;;10540820;28;19937;-76
2023/01/23 16:49:07;;;;;;;18.90;5.87;;;;;;;;;;10514811;28;20048;-74
2023/01/23 16:54:13;;;;;;;17.37;6.33;;;;;;;;;;10498072;28;20039;-75
2023/01/23 16:59:26;;;;;;;24.17;7.73;;;;;;;;;;10516426;28;20043;-76
2023/01/23 17:04:29;;;;;;;23.17;8.37;;;;;;;;;;10511966;28;20472;-75
2023/01/23 17:09:32;;;;;;;18.83;6.60;;;;;;;;;;10511219;28;20056;-74
2023/01/23 17:14:43;;;;;;;26.58;8.73;;;;;;;;;;10501238;28;20114;-74
2023/01/23 17:19:46;;;;;;;17.23;5.90;;;;;;;;;;10525986;28;20046;-74
2023/01/23 17:24:49;;;;;;;12.82;5.15;;;;;;;;;;10518620;28;20124;-74
2023/01/23 17:29:54;;;;;;;23.63;7.73;;;;;;;;;;10504510;28;20528;-74
2023/01/23 17:34:59;;;;;;;17.17;5.93;;;;;;;;;;10493708;28;20032;-78
2023/01/23 17:40:05;;;;;;;17.03;5.80;;;;;;;;;;10521114;28;20040;-78
2023/01/23 17:45:16;;;;;;;15.70;6.27;;;;;;;;;;10496348;28;20036;-74
2023/01/23 17:50:21;;;;;;;28.30;8.60;;;;;;;;;;10519471;28;20052;-75
2023/01/23 17:55:30;;;;;;;33.60;10.20;;;;;;;;;;10518090;28;20404;-77
2023/01/23 18:00:34;;;;;;;15.43;5.50;;;;;;;;;;10498464;28;20059;-75
2023/01/23 18:05:40;;;;;;;15.10;6.37;;;;;;;;;;10518391;28;20521;-75
2023/01/23 18:10:43;;;;;;;24.37;8.70;;;;;;;;;;10493369;28;20055;-75
2023/01/23 18:15:46;;;;;;;;;;;;;;;;;;10521448;28;20032;-75
2023/01/23 18:20:53;;;;;;;27.63;7.50;;;;;;;;;;10518216;28;20275;-74
2023/01/23 18:25:59;;;;;;;27.07;9.30;;;;;;;;;;10497389;28;20151;-74
2023/01/23 18:31:06;;;;;;;17.93;6.67;;;;;;;;;;10498332;28;20242;-74
2023/01/23 18:36:19;;;;;;;21.73;6.83;;;;;;;;;;10491731;28;20043;-75
2023/01/23 18:41:23;;;;;;;23.73;9.20;;;;;;;;;;10510585;28;20421;-76
2023/01/23 18:46:29;;;;;;;28.30;9.23;;;;;;;;;;10500122;28;20134;-74
2023/01/23 18:51:38;;;;;;;28.07;8.03;;;;;;;;;;10519383;28;20078;-75
2023/01/23 18:56:46;;;;;;;24.80;7.63;;;;;;;;;;10496720;28;20068;-74
2023/01/23 19:01:52;;;;;;;24.53;9.07;;;;;;;;;;10515405;28;20059;-76
2023/01/23 19:07:01;;;;;;;20.17;7.60;;;;;;;;;;10516758;28;20068;-75
2023/01/23 19:12:08;;;;;;;20.60;5.87;;;;;;;;;;10515492;28;20269;-74
2023/01/23 19:17:31;;;;;;;22.47;7.67;;;;;;;;;;10520933;28;20044;-75
2023/01/23 19:22:47;;;;;;;36.73;10.70;;;;;;;;;;10518614;28;20058;-75
2023/01/23 19:27:51;;;;;;;36.83;11.90;;;;;;;;;;10493204;28;20058;-75
2023/01/23 19:32:56;;;;;;;19.30;6.87;;;;;;;;;;10516031;28;20043;-75
2023/01/23 19:38:00;;;;;;;26.33;7.40;;;;;;;;;;10480036;28;20044;-74
2023/01/23 19:43:04;;;;;;;11.20;4.93;;;;;;;;;;10513327;28;20148;-74
2023/01/23 19:48:17;;;;;;;18.70;5.87;;;;;;;;;;10514450;28;20544;-76
2023/01/23 19:53:23;;;;;;;19.10;7.20;;;;;;;;;;10494267;28;20044;-75
2023/01/23 19:58:27;;;;;;;24.47;8.17;;;;;;;;;;10509761;28;20117;-77
2023/01/23 20:03:30;;;;;;;24.23;6.90;;;;;;;;;;10510171;28;20119;-75
2023/01/23 20:08:38;;;;;;;20.03;6.60;;;;;;;;;;10498256;28;20702;-75
2023/01/23 20:13:41;;;;;;;27.47;10.37;;;;;;;;;;10517715;28;20047;-77
2023/01/23 20:18:46;;;;;;;18.77;5.57;;;;;;;;;;10494961;28;20052;-78
2023/01/23 20:23:52;;;;;;;31.53;9.80;;;;;;;;;;10496334;28;20480;-75
2023/01/23 20:28:57;;;;;;;35.93;10.80;;;;;;;;;;10520508;28;20040;-75
2023/01/23 20:34:02;;;;;;;29.10;9.43;;;;;;;;;;10506023;28;20032;-78
2023/01/23 20:39:06;;;;;;;19.65;6.05;;;;;;;;;;10525023;28;20052;-76
2023/01/23 20:44:10;;;;;;;31.90;10.33;;;;;;;;;;10520938;28;20040;-77
2023/01/23 20:49:14;;;;;;;26.75;8.52;;;;;;;;;;10526284;28;20036;-75
2023/01/23 20:54:19;;;;;;;34.85;11.45;;;;;;;;;;10522590;28;20334;-77
2023/01/23 20:59:24;;;;;;;30.97;10.67;;;;;;;;;;10529335;28;20034;-75
2023/01/23 21:04:28;;;;;;;27.05;8.85;;;;;;;;;;10492100;28;20051;-75
2023/01/23 21:09:33;;;;;;;36.73;10.83;;;;;;;;;;10524319;28;20106;-76
2023/01/23 21:14:37;;;;;;;27.67;9.53;;;;;;;;;;10517134;28;20040;-75
2023/01/23 21:19:40;;;;;;;24.63;6.80;;;;;;;;;;10528804;28;20082;-76
2023/01/23 21:24:45;;;;;;;21.07;8.17;;;;;;;;;;10515164;28;20050;-76
2023/01/23 21:29:48;;;;;;;24.47;9.07;;;;;;;;;;10516296;28;20142;-75
2023/01/23 21:34:51;;;;;;;33.43;10.17;;;;;;;;;;10531901;28;20051;-75
2023/01/23 21:39:56;;;;;;;35.57;10.20;;;;;;;;;;10503758;28;20420;-76
2023/01/23 21:44:59;;;;;;;38.00;10.37;;;;;;;;;;10517941;28;20060;-76
2023/01/23 21:50:02;;;;;;;37.10;11.30;;;;;;;;;;10516175;28;20060;-75
2023/01/23 21:55:06;;;;;;;26.00;8.33;;;;;;;;;;10491971;28;20040;-75
2023/01/23 22:05:34;;;;;;;28.80;8.50;;;;;;;;;;10493542;28;20050;-76
2023/01/23 22:10:38;;;;;;;22.57;8.63;;;;;;;;;;10514693;28;20465;-75
2023/01/23 22:15:40;;;;;;;27.75;9.15;;;;;;;;;;10505692;28;20052;-74
2023/01/23 22:20:43;;;;;;;28.37;9.30;;;;;;;;;;10504063;28;20146;-77
2023/01/23 22:25:48;;;;;;;33.10;10.70;;;;;;;;;;10523402;28;20040;-75
2023/01/23 22:30:51;;;;;;;26.63;10.07;;;;;;;;;;10506572;28;20044;-76
2023/01/23 22:35:54;;;;;;;26.60;8.30;;;;;;;;;;10501100;28;20077;-74
2023/01/23 22:40:59;;;;;;;40.10;12.00;;;;;;;;;;10517487;28;20039;-74
2023/01/23 22:46:06;;;;;;;33.67;10.27;;;;;;;;;;10518359;28;20047;-74
2023/01/23 22:51:13;;;;;;;22.77;7.27;;;;;;;;;;10512617;28;20193;-75
2023/01/23 22:56:17;;;;;;;31.50;9.03;;;;;;;;;;10499937;28;20046;-74
2023/01/23 23:01:21;;;;;;;;;;;;;;;;;;10496724;28;20786;-74
2023/01/23 23:06:24;;;;;;;26.80;8.43;;;;;;;;;;10520057;28;19921;-74
2023/01/23 23:11:29;;;;;;;35.00;9.90;;;;;;;;;;10517081;28;20355;-74
2023/01/23 23:16:32;;;;;;;32.40;10.15;;;;;;;;;;10520880;28;20477;-74
2023/01/23 23:21:36;;;;;;;24.52;8.18;;;;;;;;;;10517512;28;20043;-74
2023/01/23 23:26:40;;;;;;;14.50;6.47;;;;;;;;;;10522674;28;20054;-75
2023/01/23 23:31:43;;;;;;;20.57;7.27;;;;;;;;;;10513506;28;20040;-76
2023/01/23 23:36:46;;;;;;;16.87;5.03;;;;;;;;;;10494258;28;20158;-74
2023/01/23 23:41:50;;;;;;;22.40;7.77;;;;;;;;;;10513098;28;20131;-74
2023/01/23 23:46:53;;;;;;;17.20;6.22;;;;;;;;;;10516090;28;20036;-75
2023/01/23 23:51:56;;;;;;;31.80;9.80;;;;;;;;;;10499499;28;20473;-76
2023/01/23 23:57:00;;;;;;;19.10;6.50;;;;;;;;;;10517839;28;20858;-75
